sensor_id;sensor_type;location;lat;lon;timestamp;pressure;altitude;pressure_sealevel;temperature;humidity
21821;BME280;11073;48.586;12.066;2022-10-28T00:01:32;97392.19;;;13.85;70.06
21821;BME280;11073;48.586;12.066;2022-10-28T00:04:01;97397.50;;;13.79;70.16
21821;BME280;11073;48.586;12.066;2022-10-28T00:06:31;97394.66;;;13.74;70.37
21821;BME280;11073;48.586;12.066;2022-10-28T00:09:01;97386.84;;;13.78;70.69
21821;BME280;11073;48.586;12.066;2022-10-28T00:11:35;97376.22;;;13.76;70.54
21821;BME280;11073;48.586;12.066;2022-10-28T00:14:05;97382.69;;;13.75;70.95
21821;BME280;11073;48.586;12.066;2022-10-28T00:16:35;97378.06;;;13.76;71.11
21821;BME280;11073;48.586;12.066;2022-10-28T00:19:05;97378.94;;;13.76;71.32
21821;BME280;11073;48.586;12.066;2022-10-28T00:21:35;97374.19;;;13.72;71.02
21821;BME280;11073;48.586;12.066;2022-10-28T00:24:05;97374.44;;;13.70;71.06
21821;BME280;11073;48.586;12.066;2022-10-28T00:26:36;97378.94;;;13.76;70.90
21821;BME280;11073;48.586;12.066;2022-10-28T00:29:07;97376.31;;;13.70;70.94
21821;BME280;11073;48.586;12.066;2022-10-28T00:31:37;97378.66;;;13.66;70.87
21821;BME280;11073;48.586;12.066;2022-10-28T00:34:08;97371.09;;;13.57;70.78
21821;BME280;11073;48.586;12.066;2022-10-28T00:36:40;97373.69;;;13.51;70.88
21821;BME280;11073;48.586;12.066;2022-10-28T00:39:11;97372.88;;;13.51;70.92
21821;BME280;11073;48.586;12.066;2022-10-28T00:41:43;97370.88;;;13.58;71.38
21821;BME280;11073;48.586;12.066;2022-10-28T00:47:46;97374.50;;;13.52;71.11
21821;BME280;11073;48.586;12.066;2022-10-28T00:50:36;97373.31;;;13.36;70.65
21821;BME280;11073;48.586;12.066;2022-10-28T00:53:09;97371.28;;;13.32;70.79
21821;BME280;11073;48.586;12.066;2022-10-28T00:55:38;97378.84;;;13.30;70.92
21821;BME280;11073;48.586;12.066;2022-10-28T00:58:09;97377.53;;;13.32;70.68
21821;BME280;11073;48.586;12.066;2022-10-28T01:00:39;97372.09;;;13.32;71.08
21821;BME280;11073;48.586;12.066;2022-10-28T01:03:07;97369.63;;;13.31;71.22
21821;BME280;11073;48.586;12.066;2022-10-28T01:05:39;97373.78;;;13.33;71.31
21821;BME280;11073;48.586;12.066;2022-10-28T01:08:09;97372.34;;;13.31;70.99
21821;BME280;11073;48.586;12.066;2022-10-28T01:10:51;97368.22;;;13.28;71.05
21821;BME280;11073;48.586;12.066;2022-10-28T01:13:32;97363.00;;;13.27;71.27
21821;BME280;11073;48.586;12.066;2022-10-28T01:16:10;97363.00;;;13.27;70.91
21821;BME280;11073;48.586;12.066;2022-10-28T01:18:56;97356.97;;;13.24;71.17
21821;BME280;11073;48.586;12.066;2022-10-28T01:21:42;97364.97;;;13.19;71.17
21821;BME280;11073;48.586;12.066;2022-10-28T01:24:28;97363.53;;;13.17;70.81
21821;BME280;11073;48.586;12.066;2022-10-28T01:30:12;97353.47;;;13.06;70.85
21821;BME280;11073;48.586;12.066;2022-10-28T01:32:58;97361.97;;;13.09;70.59
21821;BME280;11073;48.586;12.066;2022-10-28T01:35:32;97366.59;;;13.09;70.50
21821;BME280;11073;48.586;12.066;2022-10-28T01:38:14;97364.47;;;13.11;70.48
21821;BME280;11073;48.586;12.066;2022-10-28T01:40:50;97365.31;;;13.11;70.96
21821;BME280;11073;48.586;12.066;2022-10-28T01:43:24;97359.00;;;12.99;70.63
21821;BME280;11073;48.586;12.066;2022-10-28T01:45:59;97354.63;;;12.98;71.00
21821;BME280;11073;48.586;12.066;2022-10-28T01:48:33;97357.22;;;12.93;71.32
21821;BME280;11073;48.586;12.066;2022-10-28T01:51:13;97345.75;;;12.91;71.10
21821;BME280;11073;48.586;12.066;2022-10-28T01:53:46;97356.97;;;12.94;70.86
21821;BME280;11073;48.586;12.066;2022-10-28T01:56:21;97356.16;;;12.94;70.70
21821;BME280;11073;48.586;12.066;2022-10-28T01:58:54;97350.94;;;12.92;71.03
21821;BME280;11073;48.586;12.066;2022-10-28T02:01:25;97356.00;;;12.89;70.64
21821;BME280;11073;48.586;12.066;2022-10-28T02:03:56;97361.31;;;12.84;70.56
21821;BME280;11073;48.586;12.066;2022-10-28T02:06:27;97369.59;;;12.89;70.85
21821;BME280;11073;48.586;12.066;2022-10-28T02:09:07;97375.03;;;12.89;70.93
21821;BME280;11073;48.586;12.066;2022-10-28T02:11:45;97365.94;;;12.83;70.84
21821;BME280;11073;48.586;12.066;2022-10-28T02:14:28;97362.72;;;12.86;71.17
21821;BME280;11073;48.586;12.066;2022-10-28T02:17:08;97366.88;;;12.89;71.07
21821;BME280;11073;48.586;12.066;2022-10-28T02:19:48;97361.00;;;12.92;71.24
21821;BME280;11073;48.586;12.066;2022-10-28T02:22:21;97358.13;;;12.87;71.24
21821;BME280;11073;48.586;12.066;2022-10-28T02:24:57;97355.47;;;12.68;71.01
21821;BME280;11073;48.586;12.066;2022-10-28T02:27:33;97358.03;;;12.63;71.55
21821;BME280;11073;48.586;12.066;2022-10-28T02:30:06;97348.59;;;12.66;71.51
21821;BME280;11073;48.586;12.066;2022-10-28T02:32:37;97344.59;;;12.68;71.39
21821;BME280;11073;48.586;12.066;2022-10-28T02:35:13;97339.75;;;12.70;71.52
21821;BME280;11073;48.586;12.066;2022-10-28T02:37:45;97343.38;;;12.64;71.78
21821;BME280;11073;48.586;12.066;2022-10-28T02:40:19;97340.09;;;12.62;71.69
21821;BME280;11073;48.586;12.066;2022-10-28T02:42:51;97353.53;;;12.57;71.61
21821;BME280;11073;48.586;12.066;2022-10-28T02:45:24;97352.53;;;12.52;71.71
21821;BME280;11073;48.586;12.066;2022-10-28T02:47:56;97348.16;;;12.51;71.92
21821;BME280;11073;48.586;12.066;2022-10-28T02:50:29;97339.66;;;12.47;71.72
21821;BME280;11073;48.586;12.066;2022-10-28T02:53:01;97337.31;;;12.51;71.84
21821;BME280;11073;48.586;12.066;2022-10-28T02:55:36;97342.28;;;12.54;71.92
21821;BME280;11073;48.586;12.066;2022-10-28T02:58:06;97333.16;;;12.48;71.83
21821;BME280;11073;48.586;12.066;2022-10-28T03:00:34;97339.44;;;12.49;72.23
21821;BME280;11073;48.586;12.066;2022-10-28T03:03:03;97345.69;;;12.49;72.40
21821;BME280;11073;48.586;12.066;2022-10-28T03:05:33;97344.03;;;12.48;72.08
21821;BME280;11073;48.586;12.066;2022-10-28T03:08:01;97337.38;;;12.44;72.25
21821;BME280;11073;48.586;12.066;2022-10-28T03:10:30;97334.56;;;12.39;72.14
21821;BME280;11073;48.586;12.066;2022-10-28T03:12:58;97334.91;;;12.42;72.60
21821;BME280;11073;48.586;12.066;2022-10-28T03:15:27;97339.59;;;12.35;71.95
21821;BME280;11073;48.586;12.066;2022-10-28T03:17:56;97346.00;;;12.23;72.51
21821;BME280;11073;48.586;12.066;2022-10-28T03:20:25;97346.41;;;12.26;72.25
21821;BME280;11073;48.586;12.066;2022-10-28T03:22:55;97357.09;;;12.21;72.38
21821;BME280;11073;48.586;12.066;2022-10-28T03:25:24;97343.59;;;12.14;72.66
21821;BME280;11073;48.586;12.066;2022-10-28T03:27:53;97350.09;;;12.13;72.93
21821;BME280;11073;48.586;12.066;2022-10-28T03:30:21;97332.66;;;12.21;72.95
21821;BME280;11073;48.586;12.066;2022-10-28T03:32:49;97341.41;;;12.23;72.81
21821;BME280;11073;48.586;12.066;2022-10-28T03:35:18;97337.03;;;12.22;72.97
21821;BME280;11073;48.586;12.066;2022-10-28T03:37:47;97342.22;;;12.24;72.70
21821;BME280;11073;48.586;12.066;2022-10-28T03:40:17;97348.13;;;12.21;72.75
21821;BME280;11073;48.586;12.066;2022-10-28T03:42:46;97343.91;;;12.25;73.03
21821;BME280;11073;48.586;12.066;2022-10-28T03:45:14;97342.84;;;12.26;73.02
21821;BME280;11073;48.586;12.066;2022-10-28T03:47:44;97349.88;;;12.33;72.98
21821;BME280;11073;48.586;12.066;2022-10-28T03:50:13;97346.56;;;12.31;72.65
21821;BME280;11073;48.586;12.066;2022-10-28T03:52:41;97337.72;;;12.18;72.75
21821;BME280;11073;48.586;12.066;2022-10-28T03:55:11;97336.81;;;12.05;72.82
21821;BME280;11073;48.586;12.066;2022-10-28T03:57:41;97343.00;;;12.12;73.08
21821;BME280;11073;48.586;12.066;2022-10-28T04:00:11;97339.63;;;12.17;72.98
21821;BME280;11073;48.586;12.066;2022-10-28T04:02:40;97338.91;;;12.22;72.93
21821;BME280;11073;48.586;12.066;2022-10-28T04:05:09;97335.97;;;12.23;73.07
21821;BME280;11073;48.586;12.066;2022-10-28T04:07:38;97324.38;;;12.16;73.18
21821;BME280;11073;48.586;12.066;2022-10-28T04:10:08;97346.41;;;12.26;73.08
21821;BME280;11073;48.586;12.066;2022-10-28T04:12:38;97343.09;;;12.24;73.15
21821;BME280;11073;48.586;12.066;2022-10-28T04:15:09;97341.41;;;12.23;72.67
21821;BME280;11073;48.586;12.066;2022-10-28T04:17:38;97344.00;;;12.18;72.86
21821;BME280;11073;48.586;12.066;2022-10-28T04:20:07;97347.84;;;12.10;72.85
21821;BME280;11073;48.586;12.066;2022-10-28T04:22:36;97348.50;;;12.06;72.67
21821;BME280;11073;48.586;12.066;2022-10-28T04:25:06;97337.41;;;12.07;72.92
21821;BME280;11073;48.586;12.066;2022-10-28T04:27:35;97343.31;;;12.04;73.17
21821;BME280;11073;48.586;12.066;2022-10-28T04:30:05;97341.25;;;12.00;73.19
21821;BME280;11073;48.586;12.066;2022-10-28T04:32:35;97351.59;;;12.09;73.41
21821;BME280;11073;48.586;12.066;2022-10-28T04:35:05;97333.66;;;12.08;73.30
21821;BME280;11073;48.586;12.066;2022-10-28T04:37:34;97360.47;;;12.17;73.28
21821;BME280;11073;48.586;12.066;2022-10-28T04:40:03;97359.56;;;12.23;73.03
21821;BME280;11073;48.586;12.066;2022-10-28T04:42:32;97347.91;;;12.22;72.79
21821;BME280;11073;48.586;12.066;2022-10-28T04:45:01;97351.97;;;12.13;72.88
21821;BME280;11073;48.586;12.066;2022-10-28T04:47:30;97350.09;;;12.13;72.85
21821;BME280;11073;48.586;12.066;2022-10-28T04:50:00;97347.38;;;12.13;72.69
21821;BME280;11073;48.586;12.066;2022-10-28T04:52:29;97337.19;;;12.09;72.75
21821;BME280;11073;48.586;12.066;2022-10-28T04:54:58;97337.41;;;12.07;72.80
21821;BME280;11073;48.586;12.066;2022-10-28T04:57:26;97331.91;;;12.14;72.92
21821;BME280;11073;48.586;12.066;2022-10-28T04:59:55;97328.97;;;12.15;72.88
21821;BME280;11073;48.586;12.066;2022-10-28T05:02:24;97329.44;;;12.12;72.53
21821;BME280;11073;48.586;12.066;2022-10-28T05:04:53;97322.19;;;12.06;72.47
21821;BME280;11073;48.586;12.066;2022-10-28T05:07:28;97333.72;;;12.02;72.57
21821;BME280;11073;48.586;12.066;2022-10-28T05:09:57;97336.66;;;12.00;72.68
21821;BME280;11073;48.586;12.066;2022-10-28T05:12:26;97328.91;;;12.04;72.65
21821;BME280;11073;48.586;12.066;2022-10-28T05:14:55;97322.19;;;12.06;72.88
21821;BME280;11073;48.586;12.066;2022-10-28T05:17:24;97325.13;;;12.05;72.43
21821;BME280;11073;48.586;12.066;2022-10-28T05:19:53;97335.16;;;12.04;72.57
21821;BME280;11073;48.586;12.066;2022-10-28T05:22:21;97329.50;;;12.06;72.69
21821;BME280;11073;48.586;12.066;2022-10-28T05:24:51;97323.50;;;12.04;72.72
21821;BME280;11073;48.586;12.066;2022-10-28T05:27:20;97315.78;;;12.01;72.81
21821;BME280;11073;48.586;12.066;2022-10-28T05:29:48;97319.94;;;12.03;72.72
21821;BME280;11073;48.586;12.066;2022-10-28T05:32:17;97327.25;;;12.03;72.69
21821;BME280;11073;48.586;12.066;2022-10-28T05:34:45;97338.56;;;12.00;72.84
21821;BME280;11073;48.586;12.066;2022-10-28T05:37:14;97332.06;;;12.01;72.81
21821;BME280;11073;48.586;12.066;2022-10-28T05:39:43;97336.66;;;12.00;72.71
21821;BME280;11073;48.586;12.066;2022-10-28T05:42:13;97332.97;;;11.95;72.78
21821;BME280;11073;48.586;12.066;2022-10-28T05:44:41;97334.84;;;11.94;72.82
21821;BME280;11073;48.586;12.066;2022-10-28T05:47:10;97337.13;;;11.97;72.79
21821;BME280;11073;48.586;12.066;2022-10-28T05:49:39;97344.03;;;11.93;72.63
21821;BME280;11073;48.586;12.066;2022-10-28T05:52:07;97345.09;;;11.92;72.38
21821;BME280;11073;48.586;12.066;2022-10-28T05:54:36;97348.47;;;11.87;72.17
21821;BME280;11073;48.586;12.066;2022-10-28T05:57:05;97342.22;;;11.87;72.39
21821;BME280;11073;48.586;12.066;2022-10-28T05:59:35;97341.78;;;11.90;72.68
21821;BME280;11073;48.586;12.066;2022-10-28T06:02:05;97351.75;;;11.96;72.50
21821;BME280;11073;48.586;12.066;2022-10-28T06:04:34;97360.50;;;11.98;73.02
21821;BME280;11073;48.586;12.066;2022-10-28T06:07:02;97358.13;;;12.02;72.61
21821;BME280;11073;48.586;12.066;2022-10-28T06:09:31;97354.16;;;12.04;72.85
21821;BME280;11073;48.586;12.066;2022-10-28T06:12:00;97352.03;;;12.06;72.46
21821;BME280;11073;48.586;12.066;2022-10-28T06:14:28;97348.28;;;12.07;72.74
21821;BME280;11073;48.586;12.066;2022-10-28T06:16:59;97347.38;;;12.13;72.79
21821;BME280;11073;48.586;12.066;2022-10-28T06:19:27;97351.16;;;12.12;72.83
21821;BME280;11073;48.586;12.066;2022-10-28T06:21:57;97355.34;;;12.08;72.46
21821;BME280;11073;48.586;12.066;2022-10-28T06:24:25;97354.75;;;12.06;72.35
21821;BME280;11073;48.586;12.066;2022-10-28T06:26:54;97358.78;;;12.04;72.71
21821;BME280;11073;48.586;12.066;2022-10-28T06:29:23;97363.06;;;12.11;72.83
21821;BME280;11073;48.586;12.066;2022-10-28T06:31:51;97367.59;;;12.18;72.56
21821;BME280;11073;48.586;12.066;2022-10-28T06:34:22;97378.00;;;12.21;72.21
21821;BME280;11073;48.586;12.066;2022-10-28T06:36:50;97373.97;;;12.23;71.94
21821;BME280;11073;48.586;12.066;2022-10-28T06:39:19;97373.16;;;12.23;71.48
21821;BME280;11073;48.586;12.066;2022-10-28T06:41:49;97384.63;;;12.25;71.50
21821;BME280;11073;48.586;12.066;2022-10-28T06:44:18;97383.13;;;12.29;71.46
21821;BME280;11073;48.586;12.066;2022-10-28T06:46:47;97383.03;;;12.35;71.58
21821;BME280;11073;48.586;12.066;2022-10-28T06:49:15;97375.06;;;12.40;71.52
21821;BME280;11073;48.586;12.066;2022-10-28T06:51:45;97378.13;;;12.44;71.89
21821;BME280;11073;48.586;12.066;2022-10-28T06:54:13;97383.72;;;12.49;71.81
21821;BME280;11073;48.586;12.066;2022-10-28T06:56:42;97385.53;;;12.55;71.74
21821;BME280;11073;48.586;12.066;2022-10-28T06:59:12;97383.88;;;12.54;72.06
21821;BME280;11073;48.586;12.066;2022-10-28T07:01:41;97387.66;;;12.53;72.14
21821;BME280;11073;48.586;12.066;2022-10-28T07:04:10;97389.41;;;12.59;72.15
21821;BME280;11073;48.586;12.066;2022-10-28T07:06:40;97393.81;;;12.60;72.05
21821;BME280;11073;48.586;12.066;2022-10-28T07:09:12;97400.00;;;12.67;72.00
21821;BME280;11073;48.586;12.066;2022-10-28T07:11:41;97408.03;;;12.74;72.39
21821;BME280;11073;48.586;12.066;2022-10-28T07:14:11;97407.97;;;12.81;71.99
21821;BME280;11073;48.586;12.066;2022-10-28T07:16:40;97408.09;;;12.86;72.15
21821;BME280;11073;48.586;12.066;2022-10-28T07:19:09;97411.56;;;12.93;71.75
21821;BME280;11073;48.586;12.066;2022-10-28T07:21:38;97411.84;;;13.03;71.93
21821;BME280;11073;48.586;12.066;2022-10-28T07:24:08;97411.16;;;13.08;71.93
21821;BME280;11073;48.586;12.066;2022-10-28T07:26:39;97398.63;;;13.07;72.13
21821;BME280;11073;48.586;12.066;2022-10-28T07:29:08;97407.59;;;13.07;72.16
21821;BME280;11073;48.586;12.066;2022-10-28T07:31:38;97419.16;;;13.21;71.98
21821;BME280;11073;48.586;12.066;2022-10-28T07:34:07;97427.81;;;13.30;72.21
21821;BME280;11073;48.586;12.066;2022-10-28T07:36:37;97418.97;;;13.34;71.99
21821;BME280;11073;48.586;12.066;2022-10-28T07:39:08;97412.34;;;13.42;72.09
21821;BME280;11073;48.586;12.066;2022-10-28T07:41:40;97418.53;;;13.49;72.42
21821;BME280;11073;48.586;12.066;2022-10-28T07:44:10;97413.31;;;13.47;72.25
21821;BME280;11073;48.586;12.066;2022-10-28T07:46:40;97411.19;;;13.49;72.62
21821;BME280;11073;48.586;12.066;2022-10-28T07:49:10;97420.41;;;13.60;72.82
21821;BME280;11073;48.586;12.066;2022-10-28T07:51:39;97419.25;;;13.68;73.27
21821;BME280;11073;48.586;12.066;2022-10-28T07:54:09;97428.63;;;13.84;73.30
21821;BME280;11073;48.586;12.066;2022-10-28T07:56:40;97420.13;;;13.92;73.32
21821;BME280;11073;48.586;12.066;2022-10-28T07:59:10;97428.50;;;14.02;73.02
21821;BME280;11073;48.586;12.066;2022-10-28T08:01:40;97437.16;;;14.11;73.42
21821;BME280;11073;48.586;12.066;2022-10-28T08:04:10;97429.44;;;14.19;73.28
21821;BME280;11073;48.586;12.066;2022-10-28T08:06:40;97437.16;;;14.22;73.36
21821;BME280;11073;48.586;12.066;2022-10-28T08:09:11;97435.38;;;14.28;73.15
21821;BME280;11073;48.586;12.066;2022-10-28T08:11:43;97436.44;;;14.39;73.07
21821;BME280;11073;48.586;12.066;2022-10-28T08:14:13;97426.25;;;14.46;73.15
21821;BME280;11073;48.586;12.066;2022-10-28T08:16:44;97431.09;;;14.67;73.10
21821;BME280;11073;48.586;12.066;2022-10-28T08:19:14;97430.03;;;14.97;72.98
21821;BME280;11073;48.586;12.066;2022-10-28T08:21:43;97436.41;;;15.14;72.35
21821;BME280;11073;48.586;12.066;2022-10-28T08:24:13;97428.72;;;15.28;72.02
21821;BME280;11073;48.586;12.066;2022-10-28T08:26:43;97428.97;;;15.26;71.58
21821;BME280;11073;48.586;12.066;2022-10-28T08:29:14;97428.16;;;15.26;71.13
21821;BME280;11073;48.586;12.066;2022-10-28T08:31:43;97410.06;;;15.36;71.16
21821;BME280;11073;48.586;12.066;2022-10-28T08:34:13;97423.53;;;15.71;70.85
21821;BME280;11073;48.586;12.066;2022-10-28T08:36:42;97429.66;;;15.95;70.37
21821;BME280;11073;48.586;12.066;2022-10-28T08:39:12;97415.84;;;16.02;69.62
21821;BME280;11073;48.586;12.066;2022-10-28T08:41:49;97397.13;;;16.11;69.13
21821;BME280;11073;48.586;12.066;2022-10-28T08:44:41;97416.81;;;16.30;68.46
21821;BME280;11073;48.586;12.066;2022-10-28T08:47:26;97425.63;;;16.37;67.96
21821;BME280;11073;48.586;12.066;2022-10-28T08:50:02;97439.44;;;16.47;67.26
21821;BME280;11073;48.586;12.066;2022-10-28T08:52:37;97448.03;;;16.55;66.75
21821;BME280;11073;48.586;12.066;2022-10-28T08:55:14;97434.44;;;16.61;66.32
21821;BME280;11073;48.586;12.066;2022-10-28T08:57:51;97420.97;;;16.54;66.03
21821;BME280;11073;48.586;12.066;2022-10-28T09:00:23;97433.16;;;16.46;65.82
21821;BME280;11073;48.586;12.066;2022-10-28T09:03:03;97435.31;;;16.44;65.43
21821;BME280;11073;48.586;12.066;2022-10-28T09:05:37;97428.06;;;16.55;65.48
21821;BME280;11073;48.586;12.066;2022-10-28T09:08:16;97419.75;;;16.67;65.44
21821;BME280;11073;48.586;12.066;2022-10-28T09:13:49;97424.38;;;16.83;64.88
21821;BME280;11073;48.586;12.066;2022-10-28T09:16:34;97418.00;;;16.99;64.58
21821;BME280;11073;48.586;12.066;2022-10-28T09:19:14;97429.06;;;17.36;64.20
21821;BME280;11073;48.586;12.066;2022-10-28T09:21:47;97421.94;;;17.62;63.86
21821;BME280;11073;48.586;12.066;2022-10-28T09:24:22;97427.41;;;17.89;63.20
21821;BME280;11073;48.586;12.066;2022-10-28T09:26:56;97412.81;;;18.16;62.76
21821;BME280;11073;48.586;12.066;2022-10-28T09:29:38;97411.38;;;18.51;62.41
21821;BME280;11073;48.586;12.066;2022-10-28T09:32:20;97413.19;;;18.82;61.78
21821;BME280;11073;48.586;12.066;2022-10-28T09:35:00;97418.44;;;18.89;61.02
21821;BME280;11073;48.586;12.066;2022-10-28T09:37:37;97409.34;;;18.78;60.57
21821;BME280;11073;48.586;12.066;2022-10-28T09:40:16;97407.63;;;18.62;60.32
21821;BME280;11073;48.586;12.066;2022-10-28T09:42:56;97412.75;;;18.48;60.44
21821;BME280;11073;48.586;12.066;2022-10-28T09:45:32;97404.72;;;18.36;60.34
21821;BME280;11073;48.586;12.066;2022-10-28T09:48:13;97411.28;;;18.35;60.77
21821;BME280;11073;48.586;12.066;2022-10-28T09:50:54;97409.47;;;18.51;61.02
21821;BME280;11073;48.586;12.066;2022-10-28T09:53:38;97418.00;;;18.55;60.97
21821;BME280;11073;48.586;12.066;2022-10-28T09:56:12;97409.78;;;18.55;60.79
21821;BME280;11073;48.586;12.066;2022-10-28T09:58:46;97408.94;;;18.59;60.48
21821;BME280;11073;48.586;12.066;2022-10-28T10:01:19;97411.41;;;18.56;60.65
21821;BME280;11073;48.586;12.066;2022-10-28T10:03:52;97408.91;;;18.49;60.43
21821;BME280;11073;48.586;12.066;2022-10-28T10:06:26;97415.72;;;18.46;60.35
21821;BME280;11073;48.586;12.066;2022-10-28T10:08:59;97433.91;;;18.58;60.61
21821;BME280;11073;48.586;12.066;2022-10-28T10:11:33;97428.16;;;18.59;60.29
21821;BME280;11073;48.586;12.066;2022-10-28T10:14:07;97428.75;;;18.66;60.15
21821;BME280;11073;48.586;12.066;2022-10-28T10:16:41;97431.53;;;18.71;60.19
21821;BME280;11073;48.586;12.066;2022-10-28T10:19:13;97416.19;;;18.70;60.26
21821;BME280;11073;48.586;12.066;2022-10-28T10:21:45;97417.03;;;18.76;60.26
21821;BME280;11073;48.586;12.066;2022-10-28T10:24:29;97416.22;;;18.81;60.50
21821;BME280;11073;48.586;12.066;2022-10-28T10:27:02;97422.25;;;18.83;59.88
21821;BME280;11073;48.586;12.066;2022-10-28T10:29:43;97423.97;;;18.94;60.26
21821;BME280;11073;48.586;12.066;2022-10-28T10:32:18;97417.69;;;19.09;59.74
21821;BME280;11073;48.586;12.066;2022-10-28T10:34:56;97411.75;;;19.42;59.69
21821;BME280;11073;48.586;12.066;2022-10-28T10:37:31;97409.63;;;19.95;59.91
21821;BME280;11073;48.586;12.066;2022-10-28T10:40:10;97413.13;;;20.62;58.80
21821;BME280;11073;48.586;12.066;2022-10-28T10:42:46;97417.91;;;21.06;57.87
21821;BME280;11073;48.586;12.066;2022-10-28T10:45:37;97410.13;;;21.23;56.84
21821;BME280;11073;48.586;12.066;2022-10-28T10:48:12;97416.41;;;21.34;55.63
21821;BME280;11073;48.586;12.066;2022-10-28T10:50:44;97418.44;;;21.62;55.64
21821;BME280;11073;48.586;12.066;2022-10-28T10:53:19;97414.97;;;21.86;55.12
21821;BME280;11073;48.586;12.066;2022-10-28T10:55:52;97409.25;;;22.16;54.38
21821;BME280;11073;48.586;12.066;2022-10-28T10:58:26;97400.47;;;22.38;54.15
21821;BME280;11073;48.586;12.066;2022-10-28T11:00:59;97408.66;;;22.72;53.80
21821;BME280;11073;48.586;12.066;2022-10-28T11:03:34;97404.88;;;22.92;53.46
21821;BME280;11073;48.586;12.066;2022-10-28T11:06:10;97408.03;;;23.04;52.61
21821;BME280;11073;48.586;12.066;2022-10-28T11:08:56;97398.88;;;23.28;52.39
21821;BME280;11073;48.586;12.066;2022-10-28T11:11:33;97389.28;;;23.63;52.13
21821;BME280;11073;48.586;12.066;2022-10-28T11:14:08;97390.69;;;23.79;51.72
21821;BME280;11073;48.586;12.066;2022-10-28T11:16:50;97389.97;;;24.06;51.36
21821;BME280;11073;48.586;12.066;2022-10-28T11:19:28;97391.09;;;24.38;50.92
21821;BME280;11073;48.586;12.066;2022-10-28T11:22:12;97385.50;;;24.57;50.46
21821;BME280;11073;48.586;12.066;2022-10-28T11:27:46;97376.47;;;24.92;48.93
21821;BME280;11073;48.586;12.066;2022-10-28T11:30:29;97373.00;;;25.14;48.61
21821;BME280;11073;48.586;12.066;2022-10-28T11:33:06;97370.69;;;25.30;48.09
21821;BME280;11073;48.586;12.066;2022-10-28T11:36:04;97376.22;;;25.44;47.57
21821;BME280;11073;48.586;12.066;2022-10-28T11:38:47;97366.69;;;25.36;47.06
21821;BME280;11073;48.586;12.066;2022-10-28T11:41:30;97373.47;;;25.30;47.07
21821;BME280;11073;48.586;12.066;2022-10-28T11:44:10;97373.25;;;25.26;47.05
21821;BME280;11073;48.586;12.066;2022-10-28T11:46:51;97366.06;;;25.39;46.76
21821;BME280;11073;48.586;12.066;2022-10-28T11:49:56;97361.78;;;25.55;46.61
21821;BME280;11073;48.586;12.066;2022-10-28T11:52:43;97360.53;;;25.75;46.37
21821;BME280;11073;48.586;12.066;2022-10-28T11:55:24;97355.84;;;26.07;46.10
21821;BME280;11073;48.586;12.066;2022-10-28T11:58:05;97356.81;;;26.33;45.70
21821;BME280;11073;48.586;12.066;2022-10-28T12:00:44;97359.06;;;26.54;45.47
21821;BME280;11073;48.586;12.066;2022-10-28T12:03:32;97358.00;;;26.72;45.10
21821;BME280;11073;48.586;12.066;2022-10-28T12:06:14;97353.91;;;26.70;44.33
21821;BME280;11073;48.586;12.066;2022-10-28T12:09:14;97362.63;;;26.85;44.09
21821;BME280;11073;48.586;12.066;2022-10-28T12:11:59;97353.53;;;27.02;43.97
21821;BME280;11073;48.586;12.066;2022-10-28T12:14:35;97354.66;;;27.01;43.55
21821;BME280;11073;48.586;12.066;2022-10-28T12:17:11;97351.63;;;26.72;43.40
21821;BME280;11073;48.586;12.066;2022-10-28T12:19:43;97343.25;;;26.32;43.58
21821;BME280;11073;48.586;12.066;2022-10-28T12:22:18;97341.78;;;26.34;43.93
21821;BME280;11073;48.586;12.066;2022-10-28T12:24:52;97337.13;;;26.83;44.39
21821;BME280;11073;48.586;12.066;2022-10-28T12:27:25;97330.25;;;27.38;43.59
21821;BME280;11073;48.586;12.066;2022-10-28T12:29:58;97335.00;;;27.72;43.01
21821;BME280;11073;48.586;12.066;2022-10-28T12:32:31;97328.41;;;28.02;42.66
21821;BME280;11073;48.586;12.066;2022-10-28T12:35:05;97323.97;;;28.19;41.88
21821;BME280;11073;48.586;12.066;2022-10-28T12:37:38;97322.56;;;27.61;41.38
21821;BME280;11073;48.586;12.066;2022-10-28T12:40:17;97324.97;;;27.10;42.08
21821;BME280;11073;48.586;12.066;2022-10-28T12:42:52;97316.66;;;26.71;42.68
21821;BME280;11073;48.586;12.066;2022-10-28T12:45:23;97320.06;;;26.59;42.76
21821;BME280;11073;48.586;12.066;2022-10-28T12:47:57;97322.13;;;26.45;43.21
21821;BME280;11073;48.586;12.066;2022-10-28T12:50:33;97320.50;;;26.21;42.90
21821;BME280;11073;48.586;12.066;2022-10-28T12:53:21;97314.13;;;25.90;43.35
21821;BME280;11073;48.586;12.066;2022-10-28T12:55:56;97299.03;;;25.73;43.55
21821;BME280;11073;48.586;12.066;2022-10-28T12:58:29;97308.69;;;25.62;43.98
21821;BME280;11073;48.586;12.066;2022-10-28T13:01:01;97302.91;;;25.50;43.94
21821;BME280;11073;48.586;12.066;2022-10-28T13:03:32;97303.25;;;25.35;44.38
21821;BME280;11073;48.586;12.066;2022-10-28T13:06:10;97301.94;;;25.32;44.78
21821;BME280;11073;48.586;12.066;2022-10-28T13:09:22;97305.13;;;25.25;44.88
21821;BME280;11073;48.586;12.066;2022-10-28T13:12:31;97304.34;;;25.11;45.35
21821;BME280;11073;48.586;12.066;2022-10-28T13:15:23;97304.56;;;25.01;45.76
21821;BME280;11073;48.586;12.066;2022-10-28T13:21:01;97303.53;;;24.97;46.56
21821;BME280;11073;48.586;12.066;2022-10-28T13:23:37;97317.06;;;24.98;46.74
21821;BME280;11073;48.586;12.066;2022-10-28T13:26:15;97302.28;;;25.03;47.06
21821;BME280;11073;48.586;12.066;2022-10-28T13:28:52;97306.53;;;25.37;46.86
21821;BME280;11073;48.586;12.066;2022-10-28T13:31:37;97312.22;;;25.54;46.62
21821;BME280;11073;48.586;12.066;2022-10-28T13:34:08;97299.19;;;25.18;47.34
21821;BME280;11073;48.586;12.066;2022-10-28T13:36:40;97293.63;;;25.32;48.05
21821;BME280;11073;48.586;12.066;2022-10-28T13:39:22;97295.31;;;25.42;48.21